Holsworthy, United Kingdom
Current Conditions -  °F | °C
As of 5:20 PM on Sunday 21 Dec 2014 (Local Time) from EGHQ Reporting Station
Light Rain Light Rain  
Wind Chill: 10°   Ceiling: 300
Heat Index: 10°   Visibility: 3mi
Dew Point: 10°   Wind: 20mph
Humidity: 100%   Direction: 230°SW
Pressure: 30.33"   Gusts: NA
Location:  50.81°N, 4.35°W
Report Text: EGHQ 211720Z 23017KT 5000 -RA OVC003 10/10 Q1027
Loading
Personal Weather Stations






























Interactive Weather Map New forecast layout! Learn more

10-Day Weather Forecast

Advertisements
Track Severe Weather on mobile